Latest Coastal Weather Observations for Centre Island

IDD60701

Issued at 6:41 pm CST Sunday 7 February 2016 (issued every 10 minutes, with the page automatically refreshed every 10 minutes)

About coastal observations | Map of coastal stations | Coastal observations for NT | Marine services | Other Formats
Station Details ID: 014703 Name: CENTRE ISLAND Lat: -15.74 Lon: 136.82 Height: 12.2 m
Data from the previous 72 hours. | See also: Recent months at Centre Island
Date/Time
CST
Temp

°C
Wind Pressure Rain
since 9am
mm
Weather Cloud Vis
km
Sea
Height
m
Swell
Dir
 
Speed
knots
Gust
knots
hPa Trend Height
m
Period
s
Dir
07/06:30pm 32.4 N 10 13 1005.3 - 0.0 - - - - - - -
07/06:00pm 33.1 N 9 12 1005.0 - 0.0 - - - - - - -
07/05:30pm 33.8 NNW 9 12 1004.6 - 0.0 - - - - - - -
07/05:00pm 34.1 NNW 11 15 1004.5 - 0.0 - - - - - - -
07/04:30pm 34.9 NNW 10 15 1004.3 - 0.0 - - - - - - -
07/04:00pm 35.9 NNW 10 12 1004.3 - 0.0 - - - - - - -
07/03:30pm 35.7 N 8 10 1004.4 - 0.0 - - - - - - -
07/03:00pm 35.7 NNE 9 12 1004.7 - 0.0 - - - - - - -
07/02:30pm 35.6 NNE 9 11 1004.9 - 0.0 - - - - - - -
07/02:00pm 35.8 ENE 6 8 1005.4 - 0.0 - - - - - - -
07/01:30pm 35.5 E 5 6 1005.7 - 0.0 - - - - - - -
07/01:00pm 35.1 NE 5 6 1006.0 - 0.0 - - - - - - -
07/12:30pm 34.3 ENE 5 7 1006.4 - 0.0 - - - - - - -
07/12:00pm 33.8 ESE 4 6 1006.6 - 0.0 - - - - - - -
07/11:30am 33.1 S 6 7 1006.9 - 0.0 - - - - - - -
07/11:00am 33.8 SSW 6 7 1007.2 - 0.0 - - - - - - -
07/10:30am 32.7 WSW 6 8 1007.3 - 0.0 - - - - - - -
07/10:00am 31.9 WSW 6 8 1007.3 - 0.0 - - - - - - -
07/09:30am 30.7 WSW 8 9 1007.4 - 0.0 - - - - - - -
07/09:00am 30.2 WSW 8 9 1007.3 - 0.0 - - - - - - -
07/08:30am 29.8 WSW 8 11 1007.1 - 0.0 - - - - - - -
07/08:00am 29.4 WSW 7 9 1006.7 - 0.0 - - - - - - -
07/07:30am 28.3 WSW 7 8 1006.5 - 0.0 - - - - - - -
07/07:00am 27.1 W 4 5 1006.2 - 0.0 - - - - - - -
07/06:30am 26.4 WNW 6 7 1006.0 - 0.0 - - - - - - -
07/06:00am 26.1 WNW 5 7 1005.7 - 0.0 - - - - - - -
07/05:30am 27.4 W 6 7 1005.6 - 0.0 - - - - - - -
07/05:00am 27.3 W 7 8 1005.5 - 0.0 - - - - - - -
07/04:30am 27.4 W 7 9 1005.4 - 0.0 - - - - - - -
07/04:00am 27.4 W 7 8 1005.3 - 0.0 - - - - - - -
07/03:30am 27.7 W 7 8 1005.2 - 0.0 - - - - - - -
07/03:00am 27.5 W 7 8 1005.0 - 0.0 - - - - - - -
07/02:30am 27.4 WNW 6 8 1005.3 - 0.0 - - - - - - -
07/02:00am 27.0 WNW 5 6 1005.6 - 0.0 - - - - - - -
07/01:30am 27.2 NW 4 5 1005.8 - 0.0 - - - - - - -
07/01:00am 27.4 W 4 5 1006.0 - 0.0 - - - - - - -
07/12:30am 27.6 WNW 3 4 1006.2 - 0.0 - - - - - - -
07/12:00am 28.2 NNW 4 4 1006.5 - 0.0 - - - - - - -
 
Date/Time
CST
Temp

°C
Wind Pressure Rain
since 9am
mm
Weather Cloud Vis
km
Sea
Height
m
Swell
Dir
 
Speed
knots
Gust
knots
hPa Trend Height
m
Period
s
Dir
06/11:30pm 28.0 NNW 4 5 1006.5 - 0.0 - - - - - - -
06/11:00pm 28.1 WNW 2 3 1006.6 - 0.0 - - - - - - -
06/10:30pm 28.8 NW 5 5 1006.8 - 0.0 - - - - - - -
06/10:00pm 29.7 NNW 7 9 1006.5 - 0.0 - - - - - - -
06/09:30pm 29.1 CALM 0 0 1006.2 - 0.0 - - - - - - -
06/09:00pm 30.0 W 5 5 1005.7 - 0.0 - - - - - - -
06/08:30pm 30.5 W 6 7 1005.3 - 0.0 - - - - - - -
06/08:00pm 30.9 W 6 7 1005.0 - 0.0 - - - - - - -
06/07:30pm 32.3 W 10 12 1004.6 - 0.0 - - - - - - -
06/07:00pm 32.7 WSW 13 15 1004.2 - 0.0 - - - - - - -
06/06:30pm 33.8 WSW 9 11 1004.0 - 0.0 - - - - - - -
06/06:00pm 34.6 WSW 10 11 1003.6 - 0.0 - - - - - - -
06/05:30pm 35.0 WSW 12 15 1003.3 - 0.0 - - - - - - -
06/05:00pm 35.7 WSW 8 9 1003.2 - 0.0 - - - - - - -
06/04:30pm 35.9 WSW 5 7 1003.4 - 0.0 - - - - - - -
06/04:00pm 35.4 W 7 9 1003.6 - 0.0 - - - - - - -
06/03:30pm 35.5 W 10 13 1003.9 - 0.0 - - - - - - -
06/03:00pm 35.4 WSW 9 14 1004.2 - 0.0 - - - - - - -
06/02:30pm 35.5 WSW 5 8 1004.5 - 0.0 - - - - - - -
06/02:00pm 35.0 W 5 7 1004.7 - 0.0 - - - - - - -
06/01:30pm 34.5 W 6 7 1004.8 - 0.0 - - - - - - -
06/01:00pm 34.0 W 5 7 1005.2 - 0.0 - - - - - - -
06/12:30pm 32.7 WSW 3 5 1005.7 - 0.0 - - - - - - -
06/12:00pm 31.8 W 4 6 1006.0 - 0.0 - - - - - - -
06/11:30am 32.2 S 4 6 1006.1 - 0.0 - - - - - - -
06/11:00am 31.3 SSE 5 6 1006.5 - 0.0 - - - - - - -
06/10:30am 31.3 SSE 7 9 1006.7 - 0.0 - - - - - - -
06/10:00am 31.2 S 7 10 1006.8 - 0.0 - - - - - - -
06/09:30am 30.5 SSW 8 11 1006.8 - 0.0 - - - - - - -
06/09:00am 30.7 S 10 14 1006.8 - 0.0 - - - - - - -
06/08:30am 29.6 SSE 12 14 1006.3 - 0.0 - - - - - - -
06/08:00am 29.4 S 11 15 1006.0 - 0.0 - - - - - - -
06/07:30am 28.8 S 11 14 1005.7 - 0.0 - - - - - - -
06/07:00am 28.4 S 12 16 1005.3 - 0.0 - - - - - - -
06/06:30am 27.9 SSW 9 13 1005.2 - 0.0 - - - - - - -
06/06:00am 27.4 SW 9 12 1005.1 - 0.0 - - - - - - -
06/05:30am 29.1 SSW 12 17 1004.8 - 0.0 - - - - - - -
06/05:00am 28.3 SW 8 11 1004.5 - 0.0 - - - - - - -
06/04:30am 28.7 SW 10 13 1004.2 - 0.0 - - - - - - -
06/04:00am 29.0 SSW 10 14 1004.1 - 0.0 - - - - - - -
06/03:30am 29.0 SSW 11 14 1004.0 - 0.0 - - - - - - -
06/03:00am 29.0 SW 12 16 1003.8 - 0.0 - - - - - - -
06/02:30am 29.3 SSW 12 16 1003.9 - 0.0 - - - - - - -
06/02:00am 29.2 SW 11 16 1004.0 - 0.0 - - - - - - -
06/01:30am 29.5 SW 12 16 1004.3 - 0.0 - - - - - - -
06/01:00am 29.4 SW 11 15 1004.7 - 0.0 - - - - - - -
06/12:30am 29.5 SW 10 14 1005.1 - 0.0 - - - - - - -
06/12:00am 29.7 WSW 10 12 1005.4 - 0.0 - - - - - - -
 
Date/Time
CST
Temp

°C
Wind Pressure Rain
since 9am
mm
Weather Cloud Vis
km
Sea
Height
m
Swell
Dir
 
Speed
knots
Gust
knots
hPa Trend Height
m
Period
s
Dir
05/11:30pm 30.0 WSW 10 13 1005.7 - 0.0 - - - - - - -
05/11:00pm 30.0 SW 8 12 1005.8 - 0.0 - - - - - - -
05/10:30pm 30.6 SW 9 13 1005.8 - 0.0 - - - - - - -
05/10:00pm 30.7 WSW 8 11 1005.6 - 0.0 - - - - - - -
05/09:30pm 29.2 WNW 6 8 1005.2 - 0.0 - - - - - - -
05/09:00pm 29.2 NW 4 5 1005.0 - 0.0 - - - - - - -
05/08:30pm 31.0 SSW 5 6 1004.7 - 0.0 - - - - - - -
05/08:00pm 31.5 S 6 7 1004.3 - 0.0 - - - - - - -
05/07:30pm 31.8 SSE 7 8 1003.8 - 0.0 - - - - - - -
05/07:00pm 32.0 S 7 8 1003.6 - 0.0 - - - - - - -
05/06:30pm 32.3 S 5 7 1003.4 - 0.0 - - - - - - -
05/06:00pm 32.9 S 6 8 1003.2 - 0.0 - - - - - - -
05/05:30pm 33.5 SSE 6 7 1003.1 - 0.0 - - - - - - -
05/05:00pm 34.1 SSE 7 9 1003.1 - 0.0 - - - - - - -
05/04:30pm 35.3 SSW 7 11 1003.1 - 0.0 - - - - - - -
05/04:00pm 34.8 SSW 8 12 1003.1 - 0.0 - - - - - - -
05/03:30pm 35.6 SW 10 13 1003.1 - 0.0 - - - - - - -
05/03:00pm 35.5 SW 9 13 1003.3 - 0.0 - - - - - - -
05/02:30pm 33.5 S 9 11 1003.5 - 0.0 - - - - - - -
05/02:00pm 33.6 SSW 9 12 1003.8 - 0.0 - - - - - - -
05/01:30pm 33.3 S 10 13 1004.1 - 0.0 - - - - - - -
05/01:00pm 34.0 S 11 13 1004.5 - 0.0 - - - - - - -
05/12:30pm 33.7 S 11 13 1005.1 - 0.0 - - - - - - -
05/12:00pm 33.3 S 11 13 1005.6 - 0.0 - - - - - - -
05/11:30am 33.4 S 13 15 1005.8 - 0.0 - - - - - - -
05/11:00am 32.0 SSW 13 17 1006.1 - 0.0 - - - - - - -
05/10:30am 31.5 S 13 16 1006.4 - 0.0 - - - - - - -
05/10:00am 31.3 SSW 13 17 1006.7 - 0.0 - - - - - - -
05/09:30am 30.5 SSW 13 17 1006.7 - 0.0 - - - - - - -
05/09:00am 29.6 SSW 12 15 1006.9 - 0.0 - - - - - - -
05/08:30am 29.0 SSW 12 17 1007.0 - 0.0 - - - - - - -
05/08:00am 28.3 SW 10 17 1006.6 - 0.0 - - - - - - -
05/07:30am 28.4 SW 11 16 1006.5 - 0.0 - - - - - - -
05/07:00am 28.0 SW 10 13 1006.1 - 0.0 - - - - - - -
05/06:30am 27.9 SW 10 13 1005.9 - 0.0 - - - - - - -
05/06:00am 27.8 SW 10 13 1005.8 - 0.0 - - - - - - -
05/05:30am 28.0 WSW 10 13 1005.7 - 0.0 - - - - - - -
05/05:00am 28.3 WSW 12 15 1005.5 - 0.0 - - - - - - -
05/04:30am 28.5 WSW 12 16 1005.2 - 0.0 - - - - - - -
05/04:00am 28.7 WSW 15 18 1004.9 - 0.0 - - - - - - -
05/03:30am 28.6 W 14 17 1004.9 - 0.0 - - - - - - -
05/03:00am 28.1 W 10 12 1005.0 - 0.0 - - - - - - -
05/02:30am 28.4 WNW 7 9 1005.0 - 0.0 - - - - - - -
05/02:00am 29.3 WSW 10 12 1005.0 - 0.0 - - - - - - -
05/01:30am 29.0 WSW 10 12 1005.1 - 0.0 - - - - - - -
05/01:00am 28.6 WSW 11 15 1005.3 - 0.0 - - - - - - -
05/12:30am 28.4 W 6 7 1005.7 - 0.0 - - - - - - -
05/12:00am 28.1 WNW 4 5 1006.1 - 0.0 - - - - - - -
 
Date/Time
CST
Temp

°C
Wind Pressure Rain
since 9am
mm
Weather Cloud Vis
km
Sea
Height
m
Swell
Dir
 
Speed
knots
Gust
knots
hPa Trend Height
m
Period
s
Dir
04/11:30pm 28.4 WNW 4 5 1006.5 - 0.0 - - - - - - -
04/11:00pm 29.1 SW 4 5 1006.4 - 0.0 - - - - - - -
04/10:30pm 29.4 S 4 5 1006.7 - 0.0 - - - - - - -
04/10:00pm 29.5 S 4 5 1006.6 - 0.0 - - - - - - -
04/09:30pm 29.6 SSE 5 7 1006.5 - 0.0 - - - - - - -
04/09:00pm 29.9 SSE 7 9 1006.2 - 0.0 - - - - - - -
04/08:30pm 29.9 SSE 7 10 1005.7 - 0.0 - - - - - - -
04/08:00pm 29.9 SSE 8 10 1005.3 - 0.0 - - - - - - -
04/07:30pm 30.0 SSE 9 10 1005.0 - 0.0 - - - - - - -
04/07:00pm 30.1 SSE 9 11 1004.8 - 0.0 - - - - - - -

Other Formats:

Comma delimited format used in spreadsheet applications
http://www.bom.gov.au/fwo/IDD60701/IDD60701.94248.axf

JavaScript Object Notation format (JSON) in row-major order
http://www.bom.gov.au/fwo/IDD60701/IDD60701.94248.json